sensor_id;sensor_type;location;lat;lon;timestamp;pressure;altitude;pressure_sealevel;temperature
13304;BMP280;6720;51.958;4.540;2023-04-08T00:00:55;102125.41;;;10.59
13304;BMP280;6720;51.958;4.540;2023-04-08T00:03:21;102121.94;;;10.62
13304;BMP280;6720;51.958;4.540;2023-04-08T00:05:46;102122.78;;;10.61
13304;BMP280;6720;51.958;4.540;2023-04-08T00:08:11;102128.03;;;10.58
13304;BMP280;6720;51.958;4.540;2023-04-08T00:10:37;102131.50;;;10.60
13304;BMP280;6720;51.958;4.540;2023-04-08T00:13:03;102122.78;;;10.61
13304;BMP280;6720;51.958;4.540;2023-04-08T00:15:28;102120.19;;;10.59
13304;BMP280;6720;51.958;4.540;2023-04-08T00:17:53;102122.78;;;10.61
13304;BMP280;6720;51.958;4.540;2023-04-08T00:20:21;102119.28;;;10.59
13304;BMP280;6720;51.958;4.540;2023-04-08T00:22:46;102120.16;;;10.61
13304;BMP280;6720;51.958;4.540;2023-04-08T00:25:12;102126.25;;;10.57
13304;BMP280;6720;51.958;4.540;2023-04-08T00:27:37;102118.41;;;10.58
13304;BMP280;6720;51.958;4.540;2023-04-08T00:30:03;102124.50;;;10.56
13304;BMP280;6720;51.958;4.540;2023-04-08T00:32:28;102123.66;;;10.60
13304;BMP280;6720;51.958;4.540;2023-04-08T00:35:21;102114.03;;;10.56
13304;BMP280;6720;51.958;4.540;2023-04-08T00:38:23;102124.53;;;10.59
13304;BMP280;6720;51.958;4.540;2023-04-08T00:41:09;102094.78;;;10.43
13304;BMP280;6720;51.958;4.540;2023-04-08T00:43:34;102131.50;;;10.60
13304;BMP280;6720;51.958;4.540;2023-04-08T00:46:00;102124.53;;;10.62
13304;BMP280;6720;51.958;4.540;2023-04-08T00:48:25;102120.16;;;10.62
13304;BMP280;6720;51.958;4.540;2023-04-08T00:50:51;102131.53;;;10.63
13304;BMP280;6720;51.958;4.540;2023-04-08T00:53:18;102132.41;;;10.60
13304;BMP280;6720;51.958;4.540;2023-04-08T00:55:43;102136.75;;;10.60
13304;BMP280;6720;51.958;4.540;2023-04-08T00:58:09;102128.00;;;10.61
13304;BMP280;6720;51.958;4.540;2023-04-08T01:00:38;102127.16;;;10.60
13304;BMP280;6720;51.958;4.540;2023-04-08T01:05:59;102130.63;;;10.56
13304;BMP280;6720;51.958;4.540;2023-04-08T01:08:28;102144.59;;;10.58
13304;BMP280;6720;51.958;4.540;2023-04-08T01:10:58;102129.75;;;10.56
13304;BMP280;6720;51.958;4.540;2023-04-08T01:13:27;102133.25;;;10.55
13304;BMP280;6720;51.958;4.540;2023-04-08T01:15:54;102137.63;;;10.57
13304;BMP280;6720;51.958;4.540;2023-04-08T01:18:20;102135.88;;;10.61
13304;BMP280;6720;51.958;4.540;2023-04-08T01:20:47;102138.50;;;10.59
13304;BMP280;6720;51.958;4.540;2023-04-08T01:23:24;102143.72;;;10.61
13304;BMP280;6720;51.958;4.540;2023-04-08T01:25:54;102148.09;;;10.60
13304;BMP280;6720;51.958;4.540;2023-04-08T01:28:22;102132.38;;;10.57
13304;BMP280;6720;51.958;4.540;2023-04-08T01:30:48;102135.88;;;10.59
13304;BMP280;6720;51.958;4.540;2023-04-08T01:33:16;102128.00;;;10.52
13304;BMP280;6720;51.958;4.540;2023-04-08T01:35:43;102126.25;;;10.51
13304;BMP280;6720;51.958;4.540;2023-04-08T01:38:13;102132.34;;;10.53
13304;BMP280;6720;51.958;4.540;2023-04-08T01:40:39;102141.97;;;10.60
13304;BMP280;6720;51.958;4.540;2023-04-08T01:43:07;102137.63;;;10.57
13304;BMP280;6720;51.958;4.540;2023-04-08T01:45:34;102143.72;;;10.55
13304;BMP280;6720;51.958;4.540;2023-04-08T01:48:00;102144.59;;;10.60
13304;BMP280;6720;51.958;4.540;2023-04-08T01:50:26;102141.97;;;10.60
13304;BMP280;6720;51.958;4.540;2023-04-08T01:52:53;102143.75;;;10.58
13304;BMP280;6720;51.958;4.540;2023-04-08T01:55:20;102140.22;;;10.56
13304;BMP280;6720;51.958;4.540;2023-04-08T01:57:51;102140.25;;;10.59
13304;BMP280;6720;51.958;4.540;2023-04-08T02:00:20;102149.84;;;10.60
13304;BMP280;6720;51.958;4.540;2023-04-08T02:02:47;102141.13;;;10.62
13304;BMP280;6720;51.958;4.540;2023-04-08T02:05:13;102142.00;;;10.63
13304;BMP280;6720;51.958;4.540;2023-04-08T02:07:39;102141.97;;;10.60
13304;BMP280;6720;51.958;4.540;2023-04-08T02:10:05;102140.25;;;10.59
13304;BMP280;6720;51.958;4.540;2023-04-08T02:12:32;102130.66;;;10.58
13304;BMP280;6720;51.958;4.540;2023-04-08T02:14:58;102149.84;;;10.63
13304;BMP280;6720;51.958;4.540;2023-04-08T02:17:33;102148.97;;;10.61
13304;BMP280;6720;51.958;4.540;2023-04-08T02:20:05;102134.97;;;10.50
13304;BMP280;6720;51.958;4.540;2023-04-08T02:25:03;102143.75;;;10.58
13304;BMP280;6720;51.958;4.540;2023-04-08T02:27:33;102147.19;;;10.57
13304;BMP280;6720;51.958;4.540;2023-04-08T02:30:04;102148.97;;;10.55
13304;BMP280;6720;51.958;4.540;2023-04-08T02:32:32;102149.81;;;10.52
13304;BMP280;6720;51.958;4.540;2023-04-08T02:35:00;102146.31;;;10.52
13304;BMP280;6720;51.958;4.540;2023-04-08T02:37:29;102151.53;;;10.50
13304;BMP280;6720;51.958;4.540;2023-04-08T02:39:55;102148.91;;;10.47
13304;BMP280;6720;51.958;4.540;2023-04-08T02:42:21;102151.50;;;10.46
13304;BMP280;6720;51.958;4.540;2023-04-08T02:44:46;102150.66;;;10.47
13304;BMP280;6720;51.958;4.540;2023-04-08T02:47:12;102154.16;;;10.49
13304;BMP280;6720;51.958;4.540;2023-04-08T02:49:37;102154.19;;;10.52
13304;BMP280;6720;51.958;4.540;2023-04-08T02:52:03;102155.91;;;10.53
13304;BMP280;6720;51.958;4.540;2023-04-08T02:54:28;102155.06;;;10.52
13304;BMP280;6720;51.958;4.540;2023-04-08T02:56:54;102154.13;;;10.46
13304;BMP280;6720;51.958;4.540;2023-04-08T02:59:19;102160.28;;;10.49
13304;BMP280;6720;51.958;4.540;2023-04-08T03:01:45;102159.41;;;10.49
13304;BMP280;6720;51.958;4.540;2023-04-08T03:04:10;102150.66;;;10.47
13304;BMP280;6720;51.958;4.540;2023-04-08T03:06:35;102159.38;;;10.46
13304;BMP280;6720;51.958;4.540;2023-04-08T03:09:01;102158.47;;;10.39
13304;BMP280;6720;51.958;4.540;2023-04-08T03:11:26;102162.84;;;10.42
13304;BMP280;6720;51.958;4.540;2023-04-08T03:13:52;102168.97;;;10.41
13304;BMP280;6720;51.958;4.540;2023-04-08T03:16:17;102169.84;;;10.43
13304;BMP280;6720;51.958;4.540;2023-04-08T03:18:42;102160.25;;;10.45
13304;BMP280;6720;51.958;4.540;2023-04-08T03:21:08;102168.09;;;10.45
13304;BMP280;6720;51.958;4.540;2023-04-08T03:23:33;102169.00;;;10.45
13304;BMP280;6720;51.958;4.540;2023-04-08T03:25:59;102171.56;;;10.41
13304;BMP280;6720;51.958;4.540;2023-04-08T03:28:24;102175.09;;;10.46
13304;BMP280;6720;51.958;4.540;2023-04-08T03:30:50;102176.88;;;10.50
13304;BMP280;6720;51.958;4.540;2023-04-08T03:33:16;102172.50;;;10.52
13304;BMP280;6720;51.958;4.540;2023-04-08T03:35:41;102176.84;;;10.47
13304;BMP280;6720;51.958;4.540;2023-04-08T03:38:06;102182.97;;;10.49
13304;BMP280;6720;51.958;4.540;2023-04-08T03:40:32;102182.09;;;10.47
13304;BMP280;6720;51.958;4.540;2023-04-08T03:42:57;102183.84;;;10.48
13304;BMP280;6720;51.958;4.540;2023-04-08T03:45:23;102186.44;;;10.45
13304;BMP280;6720;51.958;4.540;2023-04-08T03:47:48;102183.78;;;10.40
13304;BMP280;6720;51.958;4.540;2023-04-08T03:50:14;102192.53;;;10.41
13304;BMP280;6720;51.958;4.540;2023-04-08T03:52:39;102179.41;;;10.35
13304;BMP280;6720;51.958;4.540;2023-04-08T03:55:05;102182.03;;;10.38
13304;BMP280;6720;51.958;4.540;2023-04-08T03:57:30;102185.47;;;10.32
13304;BMP280;6720;51.958;4.540;2023-04-08T03:59:56;102190.72;;;10.31
13304;BMP280;6720;51.958;4.540;2023-04-08T04:02:22;102191.63;;;10.36
13304;BMP280;6720;51.958;4.540;2023-04-08T04:04:47;102189.00;;;10.33
13304;BMP280;6720;51.958;4.540;2023-04-08T04:07:12;102183.72;;;10.27
13304;BMP280;6720;51.958;4.540;2023-04-08T04:09:38;102193.34;;;10.29
13304;BMP280;6720;51.958;4.540;2023-04-08T04:12:03;102196.81;;;10.30
13304;BMP280;6720;51.958;4.540;2023-04-08T04:14:29;102201.19;;;10.29
13304;BMP280;6720;51.958;4.540;2023-04-08T04:16:54;102197.72;;;10.30
13304;BMP280;6720;51.958;4.540;2023-04-08T04:19:20;102201.19;;;10.31
13304;BMP280;6720;51.958;4.540;2023-04-08T04:21:45;102206.44;;;10.34
13304;BMP280;6720;51.958;4.540;2023-04-08T04:24:10;102209.88;;;10.27
13304;BMP280;6720;51.958;4.540;2023-04-08T04:26:39;102209.88;;;10.27
13304;BMP280;6720;51.958;4.540;2023-04-08T04:29:05;102213.34;;;10.23
13304;BMP280;6720;51.958;4.540;2023-04-08T04:31:30;102218.63;;;10.27
13304;BMP280;6720;51.958;4.540;2023-04-08T04:33:55;102218.59;;;10.23
13304;BMP280;6720;51.958;4.540;2023-04-08T04:36:21;102215.97;;;10.20
13304;BMP280;6720;51.958;4.540;2023-04-08T04:38:46;102218.59;;;10.20
13304;BMP280;6720;51.958;4.540;2023-04-08T04:41:11;102216.84;;;10.22
13304;BMP280;6720;51.958;4.540;2023-04-08T04:43:37;102227.28;;;10.19
13304;BMP280;6720;51.958;4.540;2023-04-08T04:46:02;102223.78;;;10.14
13304;BMP280;6720;51.958;4.540;2023-04-08T04:48:31;102228.13;;;10.16
13304;BMP280;6720;51.958;4.540;2023-04-08T04:50:58;102212.38;;;10.07
13304;BMP280;6720;51.958;4.540;2023-04-08T04:53:25;102222.88;;;10.10
13304;BMP280;6720;51.958;4.540;2023-04-08T04:55:52;102235.97;;;10.15
13304;BMP280;6720;51.958;4.540;2023-04-08T04:58:17;102235.94;;;10.12
13304;BMP280;6720;51.958;4.540;2023-04-08T05:00:43;102233.31;;;10.07
13304;BMP280;6720;51.958;4.540;2023-04-08T05:03:09;102230.72;;;10.09
13304;BMP280;6720;51.958;4.540;2023-04-08T05:05:35;102237.66;;;10.07
13304;BMP280;6720;51.958;4.540;2023-04-08T05:08:00;102237.69;;;10.10
13304;BMP280;6720;51.958;4.540;2023-04-08T05:10:26;102237.66;;;10.05
13304;BMP280;6720;51.958;4.540;2023-04-08T05:12:51;102231.50;;;10.02
13304;BMP280;6720;51.958;4.540;2023-04-08T05:15:17;102249.84;;;10.03
13304;BMP280;6720;51.958;4.540;2023-04-08T05:17:42;102248.97;;;10.04
13304;BMP280;6720;51.958;4.540;2023-04-08T05:20:08;102249.81;;;10.02
13304;BMP280;6720;51.958;4.540;2023-04-08T05:22:33;102248.03;;;10.01
13304;BMP280;6720;51.958;4.540;2023-04-08T05:24:59;102246.28;;;9.94
13304;BMP280;6720;51.958;4.540;2023-04-08T05:27:25;102245.38;;;9.93
13304;BMP280;6720;51.958;4.540;2023-04-08T05:29:51;102256.72;;;9.94
13304;BMP280;6720;51.958;4.540;2023-04-08T05:32:16;102255.81;;;9.92
13304;BMP280;6720;51.958;4.540;2023-04-08T05:34:42;102254.97;;;9.90
13304;BMP280;6720;51.958;4.540;2023-04-08T05:37:08;102250.56;;;9.86
13304;BMP280;6720;51.958;4.540;2023-04-08T05:39:33;102268.03;;;9.88
13304;BMP280;6720;51.958;4.540;2023-04-08T05:41:59;102268.81;;;9.81
13304;BMP280;6720;51.958;4.540;2023-04-08T05:44:24;102274.91;;;9.82
13304;BMP280;6720;51.958;4.540;2023-04-08T05:46:50;102280.97;;;9.78
13304;BMP280;6720;51.958;4.540;2023-04-08T05:49:15;102279.19;;;9.74
13304;BMP280;6720;51.958;4.540;2023-04-08T05:51:43;102279.19;;;9.71
13304;BMP280;6720;51.958;4.540;2023-04-08T05:54:09;102273.94;;;9.68
13304;BMP280;6720;51.958;4.540;2023-04-08T05:56:37;102293.16;;;9.73
13304;BMP280;6720;51.958;4.540;2023-04-08T05:59:02;102294.03;;;9.73
13304;BMP280;6720;51.958;4.540;2023-04-08T06:01:27;102293.13;;;9.70
13304;BMP280;6720;51.958;4.540;2023-04-08T06:03:53;102271.19;;;9.54
13304;BMP280;6720;51.958;4.540;2023-04-08T06:06:20;102301.81;;;9.69
13304;BMP280;6720;51.958;4.540;2023-04-08T06:08:45;102307.88;;;9.63
13304;BMP280;6720;51.958;4.540;2023-04-08T06:11:11;102311.34;;;9.61
13304;BMP280;6720;51.958;4.540;2023-04-08T06:13:37;102310.47;;;9.62
13304;BMP280;6720;51.958;4.540;2023-04-08T06:16:13;102305.16;;;9.53
13304;BMP280;6720;51.958;4.540;2023-04-08T06:18:39;102313.88;;;9.55
13304;BMP280;6720;51.958;4.540;2023-04-08T06:21:05;102320.00;;;9.57
13304;BMP280;6720;51.958;4.540;2023-04-08T06:23:31;102320.88;;;9.59
13304;BMP280;6720;51.958;4.540;2023-04-08T06:25:56;102322.50;;;9.45
13304;BMP280;6720;51.958;4.540;2023-04-08T06:28:23;102326.75;;;9.35
13304;BMP280;6720;51.958;4.540;2023-04-08T06:30:48;102333.75;;;9.38
13304;BMP280;6720;51.958;4.540;2023-04-08T06:33:13;102324.16;;;9.40
13304;BMP280;6720;51.958;4.540;2023-04-08T06:35:39;102333.00;;;9.51
13304;BMP280;6720;51.958;4.540;2023-04-08T06:38:05;102323.38;;;9.48
13304;BMP280;6720;51.958;4.540;2023-04-08T06:40:31;102343.59;;;9.64
13304;BMP280;6720;51.958;4.540;2023-04-08T06:42:58;102340.22;;;9.73
13304;BMP280;6720;51.958;4.540;2023-04-08T06:45:24;102352.44;;;9.74
13304;BMP280;6720;51.958;4.540;2023-04-08T06:47:50;102353.22;;;9.64
13304;BMP280;6720;51.958;4.540;2023-04-08T06:50:15;102356.72;;;9.66
13304;BMP280;6720;51.958;4.540;2023-04-08T06:52:41;102354.91;;;9.60
13304;BMP280;6720;51.958;4.540;2023-04-08T06:55:06;102363.63;;;9.61
13304;BMP280;6720;51.958;4.540;2023-04-08T06:57:32;102358.44;;;9.67
13304;BMP280;6720;51.958;4.540;2023-04-08T06:59:57;102354.13;;;9.69
13304;BMP280;6720;51.958;4.540;2023-04-08T07:02:24;102359.41;;;9.72
13304;BMP280;6720;51.958;4.540;2023-04-08T07:04:50;102369.91;;;9.75
13304;BMP280;6720;51.958;4.540;2023-04-08T07:07:15;102369.09;;;9.83
13304;BMP280;6720;51.958;4.540;2023-04-08T07:09:41;102368.28;;;9.89
13304;BMP280;6720;51.958;4.540;2023-04-08T07:12:10;102374.44;;;9.92
13304;BMP280;6720;51.958;4.540;2023-04-08T07:14:35;102371.84;;;9.94
13304;BMP280;6720;51.958;4.540;2023-04-08T07:17:01;102377.13;;;10.01
13304;BMP280;6720;51.958;4.540;2023-04-08T07:19:26;102375.38;;;9.99
13304;BMP280;6720;51.958;4.540;2023-04-08T07:21:52;102376.28;;;10.04
13304;BMP280;6720;51.958;4.540;2023-04-08T07:24:19;102389.50;;;10.16
13304;BMP280;6720;51.958;4.540;2023-04-08T07:26:44;102382.56;;;10.18
13304;BMP280;6720;51.958;4.540;2023-04-08T07:29:10;102390.50;;;10.24
13304;BMP280;6720;51.958;4.540;2023-04-08T07:31:35;102389.66;;;10.28
13304;BMP280;6720;51.958;4.540;2023-04-08T07:34:00;102399.28;;;10.32
13304;BMP280;6720;51.958;4.540;2023-04-08T07:36:26;102390.63;;;10.40
13304;BMP280;6720;51.958;4.540;2023-04-08T07:38:52;102391.53;;;10.44
13304;BMP280;6720;51.958;4.540;2023-04-08T07:41:17;102381.91;;;10.41
13304;BMP280;6720;51.958;4.540;2023-04-08T07:43:43;102392.47;;;10.50
13304;BMP280;6720;51.958;4.540;2023-04-08T07:46:08;102391.63;;;10.56
13304;BMP280;6720;51.958;4.540;2023-04-08T07:48:34;102399.56;;;10.68
13304;BMP280;6720;51.958;4.540;2023-04-08T07:51:03;102398.72;;;10.72
13304;BMP280;6720;51.958;4.540;2023-04-08T07:53:29;102394.38;;;10.71
13304;BMP280;6720;51.958;4.540;2023-04-08T07:55:54;102398.75;;;10.75
13304;BMP280;6720;51.958;4.540;2023-04-08T07:58:20;102387.50;;;10.91
13304;BMP280;6720;51.958;4.540;2023-04-08T08:00:45;102392.84;;;11.01
13304;BMP280;6720;51.958;4.540;2023-04-08T08:03:14;102398.09;;;11.03
13304;BMP280;6720;51.958;4.540;2023-04-08T08:05:39;102406.03;;;11.15
13304;BMP280;6720;51.958;4.540;2023-04-08T08:08:05;102395.56;;;11.18
13304;BMP280;6720;51.958;4.540;2023-04-08T08:10:32;102406.03;;;11.18
13304;BMP280;6720;51.958;4.540;2023-04-08T08:12:57;102402.56;;;11.19
13304;BMP280;6720;51.958;4.540;2023-04-08T08:15:23;102409.59;;;11.32
13304;BMP280;6720;51.958;4.540;2023-04-08T08:17:50;102406.09;;;11.30
13304;BMP280;6720;51.958;4.540;2023-04-08T08:20:15;102416.69;;;11.48
13304;BMP280;6720;51.958;4.540;2023-04-08T08:22:41;102407.00;;;11.37
13304;BMP280;6720;51.958;4.540;2023-04-08T08:25:06;102419.28;;;11.42
13304;BMP280;6720;51.958;4.540;2023-04-08T08:27:34;102421.19;;;11.67
13304;BMP280;6720;51.958;4.540;2023-04-08T08:29:59;102419.47;;;11.83
13304;BMP280;6720;51.958;4.540;2023-04-08T08:32:24;102416.88;;;11.90
13304;BMP280;6720;51.958;4.540;2023-04-08T08:34:50;102421.28;;;12.03
13304;BMP280;6720;51.958;4.540;2023-04-08T08:37:15;102427.41;;;12.08
13304;BMP280;6720;51.958;4.540;2023-04-08T08:39:41;102429.19;;;12.21
13304;BMP280;6720;51.958;4.540;2023-04-08T08:42:06;102432.72;;;12.35
13304;BMP280;6720;51.958;4.540;2023-04-08T08:44:31;102433.59;;;12.39
13304;BMP280;6720;51.958;4.540;2023-04-08T08:46:57;102429.19;;;12.30
13304;BMP280;6720;51.958;4.540;2023-04-08T08:49:22;102430.09;;;12.35
13304;BMP280;6720;51.958;4.540;2023-04-08T08:51:49;102442.34;;;12.27
13304;BMP280;6720;51.958;4.540;2023-04-08T08:54:15;102433.59;;;12.28
13304;BMP280;6720;51.958;4.540;2023-04-08T08:56:41;102435.34;;;12.41
13304;BMP280;6720;51.958;4.540;2023-04-08T08:59:10;102432.72;;;12.59
13304;BMP280;6720;51.958;4.540;2023-04-08T09:01:38;102432.72;;;12.74
13304;BMP280;6720;51.958;4.540;2023-04-08T09:04:12;102435.34;;;12.74
13304;BMP280;6720;51.958;4.540;2023-04-08T09:06:38;102433.59;;;12.82
13304;BMP280;6720;51.958;4.540;2023-04-08T09:09:04;102434.50;;;12.99
13304;BMP280;6720;51.958;4.540;2023-04-08T09:11:40;102430.94;;;12.97
13304;BMP280;6720;51.958;4.540;2023-04-08T09:14:22;102438.84;;;12.96
13304;BMP280;6720;51.958;4.540;2023-04-08T09:16:48;102433.59;;;12.88
13304;BMP280;6720;51.958;4.540;2023-04-08T09:19:14;102438.84;;;13.11
13304;BMP280;6720;51.958;4.540;2023-04-08T09:21:39;102446.66;;;13.45
13304;BMP280;6720;51.958;4.540;2023-04-08T09:24:06;102442.13;;;13.82
13304;BMP280;6720;51.958;4.540;2023-04-08T09:26:32;102448.22;;;13.91
13304;BMP280;6720;51.958;4.540;2023-04-08T09:29:05;102448.28;;;13.82
13304;BMP280;6720;51.958;4.540;2023-04-08T09:31:35;102446.44;;;13.96
13304;BMP280;6720;51.958;4.540;2023-04-08T09:34:15;102446.38;;;14.10
13304;BMP280;6720;51.958;4.540;2023-04-08T09:36:42;102443.59;;;14.37
13304;BMP280;6720;51.958;4.540;2023-04-08T09:39:10;102442.63;;;14.48
13304;BMP280;6720;51.958;4.540;2023-04-08T09:41:37;102447.59;;;14.86
13304;BMP280;6720;51.958;4.540;2023-04-08T09:44:04;102442.09;;;15.09
13304;BMP280;6720;51.958;4.540;2023-04-08T09:49:26;102441.84;;;15.36
13304;BMP280;6720;51.958;4.540;2023-04-08T09:52:07;102444.41;;;15.43
13304;BMP280;6720;51.958;4.540;2023-04-08T09:54:56;102442.56;;;15.50
13304;BMP280;6720;51.958;4.540;2023-04-08T09:57:39;102447.44;;;15.83
13304;BMP280;6720;51.958;4.540;2023-04-08T10:00:16;102449.03;;;15.94
13304;BMP280;6720;51.958;4.540;2023-04-08T10:02:51;102447.00;;;16.14
13304;BMP280;6720;51.958;4.540;2023-04-08T10:05:19;102444.91;;;16.36
13304;BMP280;6720;51.958;4.540;2023-04-08T10:07:45;102447.25;;;16.57
13304;BMP280;6720;51.958;4.540;2023-04-08T10:10:10;102446.22;;;16.65
13304;BMP280;6720;51.958;4.540;2023-04-08T10:12:36;102447.16;;;16.63
13304;BMP280;6720;51.958;4.540;2023-04-08T10:17:50;102443.00;;;17.00
13304;BMP280;6720;51.958;4.540;2023-04-08T10:23:07;102447.53;;;17.39
13304;BMP280;6720;51.958;4.540;2023-04-08T10:25:37;102446.38;;;17.08
13304;BMP280;6720;51.958;4.540;2023-04-08T10:33:09;102453.59;;;17.47
13304;BMP280;6720;51.958;4.540;2023-04-08T10:35:36;102452.47;;;17.60
13304;BMP280;6720;51.958;4.540;2023-04-08T10:38:02;102452.06;;;17.79
13304;BMP280;6720;51.958;4.540;2023-04-08T10:40:28;102457.88;;;17.96
13304;BMP280;6720;51.958;4.540;2023-04-08T10:42:54;102446.25;;;18.02
13304;BMP280;6720;51.958;4.540;2023-04-08T10:45:20;102451.16;;;18.20
13304;BMP280;6720;51.958;4.540;2023-04-08T10:47:46;102458.63;;;18.01
13304;BMP280;6720;51.958;4.540;2023-04-08T10:50:17;102446.53;;;18.28
13304;BMP280;6720;51.958;4.540;2023-04-08T10:52:49;102453.28;;;18.43
13304;BMP280;6720;51.958;4.540;2023-04-08T10:55:15;102434.00;;;18.71
13304;BMP280;6720;51.958;4.540;2023-04-08T10:57:42;102444.41;;;18.80
13304;BMP280;6720;51.958;4.540;2023-04-08T11:00:11;102444.72;;;18.68
13304;BMP280;6720;51.958;4.540;2023-04-08T11:02:41;102436.94;;;18.94
13304;BMP280;6720;51.958;4.540;2023-04-08T11:05:08;102439.06;;;19.15
13304;BMP280;6720;51.958;4.540;2023-04-08T11:07:40;102437.13;;;18.88
13304;BMP280;6720;51.958;4.540;2023-04-08T11:10:06;102439.09;;;19.14
13304;BMP280;6720;51.958;4.540;2023-04-08T11:12:32;102441.47;;;19.56
13304;BMP280;6720;51.958;4.540;2023-04-08T11:14:58;102445.50;;;19.69
13304;BMP280;6720;51.958;4.540;2023-04-08T11:17:23;102439.06;;;19.78
13304;BMP280;6720;51.958;4.540;2023-04-08T11:19:49;102445.25;;;19.78
13304;BMP280;6720;51.958;4.540;2023-04-08T11:22:14;102444.97;;;19.87
13304;BMP280;6720;51.958;4.540;2023-04-08T11:24:41;102441.50;;;19.85
13304;BMP280;6720;51.958;4.540;2023-04-08T11:27:06;102437.03;;;20.16
13304;BMP280;6720;51.958;4.540;2023-04-08T11:29:32;102432.34;;;20.24
13304;BMP280;6720;51.958;4.540;2023-04-08T11:31:58;102450.38;;;20.15
13304;BMP280;6720;51.958;4.540;2023-04-08T11:34:24;102431.63;;;20.19
13304;BMP280;6720;51.958;4.540;2023-04-08T11:36:51;102438.84;;;20.14
13304;BMP280;6720;51.958;4.540;2023-04-08T11:39:16;102419.91;;;20.25
13304;BMP280;6720;51.958;4.540;2023-04-08T11:41:53;102441.69;;;20.08
13304;BMP280;6720;51.958;4.540;2023-04-08T11:44:31;102431.81;;;20.41
13304;BMP280;6720;51.958;4.540;2023-04-08T11:47:00;102433.09;;;20.55
13304;BMP280;6720;51.958;4.540;2023-04-08T11:49:26;102435.97;;;20.75
13304;BMP280;6720;51.958;4.540;2023-04-08T11:51:57;102427.88;;;20.78
13304;BMP280;6720;51.958;4.540;2023-04-08T11:54:30;102438.84;;;20.95
13304;BMP280;6720;51.958;4.540;2023-04-08T11:56:56;102443.84;;;21.04
13304;BMP280;6720;51.958;4.540;2023-04-08T11:59:23;102430.69;;;20.74
13304;BMP280;6720;51.958;4.540;2023-04-08T12:01:48;102442.53;;;20.65
13304;BMP280;6720;51.958;4.540;2023-04-08T12:04:13;102433.09;;;20.81
13304;BMP280;6720;51.958;4.540;2023-04-08T12:06:39;102442.34;;;21.22
13304;BMP280;6720;51.958;4.540;2023-04-08T12:09:07;102439.88;;;20.10
13304;BMP280;6720;51.958;4.540;2023-04-08T12:11:33;102439.78;;;20.94
13304;BMP280;6720;51.958;4.540;2023-04-08T12:13:59;102446.53;;;21.04
13304;BMP280;6720;51.958;4.540;2023-04-08T12:16:24;102429.78;;;21.25
13304;BMP280;6720;51.958;4.540;2023-04-08T12:18:50;102438.41;;;21.57
13304;BMP280;6720;51.958;4.540;2023-04-08T12:21:15;102443.56;;;21.86
13304;BMP280;6720;51.958;4.540;2023-04-08T12:23:41;102436.09;;;20.98
13304;BMP280;6720;51.958;4.540;2023-04-08T12:26:06;102437.81;;;21.48
13304;BMP280;6720;51.958;4.540;2023-04-08T12:28:32;102423.81;;;21.43
13304;BMP280;6720;51.958;4.540;2023-04-08T12:30:59;102427.78;;;21.80
13304;BMP280;6720;51.958;4.540;2023-04-08T12:33:24;102432.78;;;21.89
13304;BMP280;6720;51.958;4.540;2023-04-08T12:35:50;102438.47;;;22.01
13304;BMP280;6720;51.958;4.540;2023-04-08T12:38:15;102438.28;;;22.29
13304;BMP280;6720;51.958;4.540;2023-04-08T12:40:41;102433.19;;;22.23
13304;BMP280;6720;51.958;4.540;2023-04-08T12:43:06;102421.38;;;22.51
13304;BMP280;6720;51.958;4.540;2023-04-08T12:45:32;102431.56;;;22.19
13304;BMP280;6720;51.958;4.540;2023-04-08T12:47:57;102433.03;;;22.04
13304;BMP280;6720;51.958;4.540;2023-04-08T12:50:23;102441.19;;;22.00
13304;BMP280;6720;51.958;4.540;2023-04-08T12:52:48;102425.47;;;21.94
13304;BMP280;6720;51.958;4.540;2023-04-08T12:55:13;102435.59;;;22.29
13304;BMP280;6720;51.958;4.540;2023-04-08T12:57:39;102425.66;;;22.11
13304;BMP280;6720;51.958;4.540;2023-04-08T13:00:04;102430.59;;;22.43
13304;BMP280;6720;51.958;4.540;2023-04-08T13:02:30;102427.63;;;22.72
13304;BMP280;6720;51.958;4.540;2023-04-08T13:04:55;102432.19;;;22.04
13304;BMP280;6720;51.958;4.540;2023-04-08T13:07:21;102433.00;;;21.83
13304;BMP280;6720;51.958;4.540;2023-04-08T13:09:46;102428.19;;;21.92
13304;BMP280;6720;51.958;4.540;2023-04-08T13:12:12;102421.13;;;22.13
13304;BMP280;6720;51.958;4.540;2023-04-08T13:14:37;102418.81;;;22.27
13304;BMP280;6720;51.958;4.540;2023-04-08T13:17:03;102430.41;;;21.57
13304;BMP280;6720;51.958;4.540;2023-04-08T13:19:29;102424.56;;;21.93
13304;BMP280;6720;51.958;4.540;2023-04-08T13:21:55;102416.28;;;22.01
13304;BMP280;6720;51.958;4.540;2023-04-08T13:24:20;102421.50;;;22.04
13304;BMP280;6720;51.958;4.540;2023-04-08T13:26:45;102410.03;;;22.23
13304;BMP280;6720;51.958;4.540;2023-04-08T13:29:11;102413.19;;;22.33
13304;BMP280;6720;51.958;4.540;2023-04-08T13:31:36;102416.09;;;22.50
13304;BMP280;6720;51.958;4.540;2023-04-08T13:34:02;102413.16;;;22.56
13304;BMP280;6720;51.958;4.540;2023-04-08T13:36:27;102421.75;;;22.41
13304;BMP280;6720;51.958;4.540;2023-04-08T13:38:52;102394.63;;;22.30
13304;BMP280;6720;51.958;4.540;2023-04-08T13:41:19;102404.91;;;22.62
13304;BMP280;6720;51.958;4.540;2023-04-08T13:43:45;102406.44;;;22.67
13304;BMP280;6720;51.958;4.540;2023-04-08T13:46:10;102407.22;;;22.91
13304;BMP280;6720;51.958;4.540;2023-04-08T13:48:36;102408.28;;;22.87
13304;BMP280;6720;51.958;4.540;2023-04-08T13:51:01;102415.94;;;22.94
13304;BMP280;6720;51.958;4.540;2023-04-08T13:53:27;102413.09;;;22.99
13304;BMP280;6720;51.958;4.540;2023-04-08T13:55:53;102411.47;;;23.15
13304;BMP280;6720;51.958;4.540;2023-04-08T13:58:20;102414.41;;;23.09
13304;BMP280;6720;51.958;4.540;2023-04-08T14:00:46;102400.38;;;22.84
13304;BMP280;6720;51.958;4.540;2023-04-08T14:03:12;102402.94;;;23.07
13304;BMP280;6720;51.958;4.540;2023-04-08T14:05:37;102401.19;;;23.06
13304;BMP280;6720;51.958;4.540;2023-04-08T14:08:03;102410.31;;;22.80
13304;BMP280;6720;51.958;4.540;2023-04-08T14:10:28;102401.50;;;22.78
13304;BMP280;6720;51.958;4.540;2023-04-08T14:12:53;102394.53;;;22.54
13304;BMP280;6720;51.958;4.540;2023-04-08T14:15:19;102401.03;;;22.04
13304;BMP280;6720;51.958;4.540;2023-04-08T14:17:44;102397.28;;;22.30
13304;BMP280;6720;51.958;4.540;2023-04-08T14:20:10;102400.22;;;22.67
13304;BMP280;6720;51.958;4.540;2023-04-08T14:22:35;102403.38;;;22.76
13304;BMP280;6720;51.958;4.540;2023-04-08T14:25:01;102403.19;;;22.81
13304;BMP280;6720;51.958;4.540;2023-04-08T14:27:26;102406.91;;;22.97